PWSweather.com
Personal Weather Stations
Station Observations
UXOLA
Alcoy, AlcoyES

AlcoyAlcoyES

Lat: 38.70299, Lon: -0.48184

Elevation: 1935

Station Type: PCE FWS-20,

http://www.fiestasalcoy.xyz

High Low Average
Temperature 64.9°F18.3°F 54.9°F12.7°F 61.7°F16.5°F
Dew Point 57.7°F14.3°F 51.7°F10.9°F 56.1°F13.4°F
Winds 12.1 mph -19.5 mph - Calm Calm 5.2 mph 8.4 mph
Wind Gusts 19.0 mph30.6 mph 0.7 mph1.1 mph 9.2 mph14.8 mph
Humidity 90% 75% 82%
Pressure 29.80 in1009.10 in 29.70 in1005.80 in -
Precipitation 0.01 in0.30 in - -
Hour Temp Dew Point Humidity Winds Wind Gusts Pressure Precip Precip Rate Daily Precip Total
08:00 AM 54.9°F12.7°C 51.7°F10.9°C 89% Calm Calm 0.7 mph1.1 kmh 29.70 in1005.8 mb 0.01 in0.3 mm 0.00 in0.0 mm 0.05 in1.3 mm
08:15 AM 55.0°F12.8°C 52.2°F11.2°C 90% Calm Calm 2.2 mph3.5 kmh 29.70 in1005.8 mb 0.00 in0.0 mm 0.00 in0.0 mm 0.05 in1.3 mm
08:30 AM 55.2°F12.9°C 52.3°F11.3°C 90% Calm Calm 2.2 mph3.5 kmh 29.71 in1006.1 mb 0.00 in0.0 mm 0.00 in0.0 mm 0.05 in1.3 mm
08:45 AM 55.6°F13.1°C 52.7°F11.5°C 90% Calm Calm 1.6 mph2.6 kmh 29.73 in1006.8 mb 0.00 in0.0 mm 0.00 in0.0 mm 0.05 in1.3 mm
09:00 AM 55.9°F13.3°C 53.1°F11.7°C 90% Calm Calm 2.2 mph3.5 kmh 29.74 in1007.1 mb 0.00 in0.0 mm 0.00 in0.0 mm 0.05 in1.3 mm
09:15 AM 56.3°F13.5°C 53.4°F11.9°C 90% 0.7 mph SE1.1 kmh SE 2.2 mph3.5 kmh 29.75 in1007.5 mb 0.00 in0.0 mm 0.00 in0.0 mm 0.05 in1.3 mm
09:30 AM 56.7°F13.7°C 53.8°F12.1°C 90% 0.7 mph SE1.1 kmh SE 2.2 mph3.5 kmh 29.76 in1007.8 mb 0.00 in0.0 mm 0.00 in0.0 mm 0.05 in1.3 mm
09:45 AM 56.8°F13.8°C 53.9°F12.2°C 90% Calm Calm 1.6 mph2.6 kmh 29.77 in1008.1 mb 0.00 in0.0 mm 0.00 in0.0 mm 0.05 in1.3 mm
10:00 AM 57.0°F13.9°C 53.8°F12.1°C 89% 0.7 mph W1.1 kmh W 2.2 mph3.5 kmh 29.77 in1008.1 mb 0.00 in0.0 mm 0.00 in0.0 mm 0.05 in1.3 mm
10:15 AM 57.2°F14.0°C 53.7°F12.1°C 88% 2.2 mph NW3.5 kmh NW 3.1 mph5.0 kmh 29.78 in1008.5 mb 0.00 in0.0 mm 0.00 in0.0 mm 0.05 in1.3 mm
10:30 AM 57.9°F14.4°C 54.1°F12.3°C 87% 1.6 mph W2.6 kmh W 3.8 mph6.1 kmh 29.79 in1008.8 mb 0.00 in0.0 mm 0.00 in0.0 mm 0.05 in1.3 mm
10:45 AM 58.6°F14.8°C 54.2°F12.3°C 85% 2.2 mph WNW3.5 kmh WNW 3.1 mph5.0 kmh 29.79 in1008.8 mb 0.00 in0.0 mm 0.00 in0.0 mm 0.05 in1.3 mm
11:00 AM 59.5°F15.3°C 55.0°F12.8°C 85% 0.7 mph NW1.1 kmh NW 2.2 mph3.5 kmh 29.79 in1008.8 mb 0.00 in0.0 mm 0.00 in0.0 mm 0.05 in1.3 mm
11:15 AM 61.0°F16.1°C 56.1°F13.4°C 84% Calm Calm 2.2 mph3.5 kmh 29.78 in1008.5 mb 0.00 in0.0 mm 0.00 in0.0 mm 0.05 in1.3 mm
11:30 AM 62.1°F16.7°C 55.8°F13.2°C 80% 1.6 mph SE2.6 kmh SE 3.8 mph6.1 kmh 29.78 in1008.5 mb 0.00 in0.0 mm 0.00 in0.0 mm 0.05 in1.3 mm
11:45 AM 62.8°F17.1°C 55.8°F13.2°C 78% 1.6 mph ESE2.6 kmh ESE 3.8 mph6.1 kmh 29.79 in1008.8 mb 0.00 in0.0 mm 0.00 in0.0 mm 0.05 in1.3 mm
12:00 PM 63.0°F17.2°C 55.7°F13.2°C 77% 4.5 mph SE7.2 kmh SE 7.6 mph12.2 kmh 29.79 in1008.8 mb 0.00 in0.0 mm 0.00 in0.0 mm 0.05 in1.3 mm
12:15 PM 63.0°F17.2°C 55.7°F13.2°C 77% 4.5 mph ESE7.2 kmh ESE 8.3 mph13.4 kmh 29.78 in1008.5 mb 0.00 in0.0 mm 0.00 in0.0 mm 0.05 in1.3 mm
12:30 PM 63.3°F17.4°C 56.0°F13.3°C 77% 5.4 mph SE8.7 kmh SE 9.2 mph14.8 kmh 29.78 in1008.5 mb 0.00 in0.0 mm 0.00 in0.0 mm 0.05 in1.3 mm
12:45 PM 63.5°F17.5°C 55.8°F13.2°C 76% 8.3 mph ESE13.4 kmh ESE 12.1 mph19.5 kmh 29.78 in1008.5 mb 0.00 in0.0 mm 0.00 in0.0 mm 0.05 in1.3 mm
01:00 PM 64.0°F17.8°C 56.3°F13.5°C 76% 8.3 mph SE13.4 kmh SE 15.9 mph25.6 kmh 29.77 in1008.1 mb 0.00 in0.0 mm 0.00 in0.0 mm 0.05 in1.3 mm
01:15 PM 63.9°F17.7°C 56.9°F13.8°C 78% 9.2 mph E14.8 kmh E 13.0 mph20.9 kmh 29.76 in1007.8 mb 0.00 in0.0 mm 0.00 in0.0 mm 0.05 in1.3 mm
01:30 PM 64.0°F17.8°C 56.7°F13.7°C 77% 10.7 mph ESE17.2 kmh ESE 13.6 mph21.9 kmh 29.76 in1007.8 mb 0.00 in0.0 mm 0.00 in0.0 mm 0.05 in1.3 mm
01:45 PM 64.8°F18.2°C 56.7°F13.7°C 75% 9.2 mph ESE14.8 kmh ESE 14.5 mph23.3 kmh 29.75 in1007.5 mb 0.00 in0.0 mm 0.00 in0.0 mm 0.05 in1.3 mm
02:00 PM 64.6°F18.1°C 56.9°F13.8°C 76% 9.2 mph ESE14.8 kmh ESE 13.6 mph21.9 kmh 29.75 in1007.5 mb 0.00 in0.0 mm 0.00 in0.0 mm 0.05 in1.3 mm
02:15 PM 64.9°F18.3°C 57.2°F14.0°C 76% 6.9 mph ESE11.1 kmh ESE 12.1 mph19.5 kmh 29.75 in1007.5 mb 0.00 in0.0 mm 0.00 in0.0 mm 0.05 in1.3 mm
02:30 PM 64.9°F18.3°C 57.2°F14.0°C 76% 7.6 mph E12.2 kmh E 12.1 mph19.5 kmh 29.74 in1007.1 mb 0.00 in0.0 mm 0.00 in0.0 mm 0.05 in1.3 mm
02:45 PM 64.9°F18.3°C 57.2°F14.0°C 76% 9.8 mph SE15.8 kmh SE 13.6 mph21.9 kmh 29.74 in1007.1 mb 0.00 in0.0 mm 0.00 in0.0 mm 0.05 in1.3 mm
03:00 PM 64.6°F18.1°C 57.2°F14.0°C 77% 8.3 mph SE13.4 kmh SE 12.1 mph19.5 kmh 29.74 in1007.1 mb 0.00 in0.0 mm 0.00 in0.0 mm 0.05 in1.3 mm
03:15 PM 64.0°F17.8°C 56.7°F13.7°C 77% 12.1 mph SE19.5 kmh SE 15.2 mph24.5 kmh 29.75 in1007.5 mb 0.00 in0.0 mm 0.00 in0.0 mm 0.05 in1.3 mm
03:30 PM 63.9°F17.7°C 56.9°F13.8°C 78% 4.5 mph SE7.2 kmh SE 16.8 mph27.0 kmh 29.75 in1007.5 mb 0.00 in0.0 mm 0.00 in0.0 mm 0.05 in1.3 mm
03:45 PM 63.0°F17.2°C 55.7°F13.2°C 77% 9.2 mph SE14.8 kmh SE 19.0 mph30.6 kmh 29.75 in1007.5 mb 0.00 in0.0 mm 0.00 in0.0 mm 0.05 in1.3 mm
04:00 PM 62.8°F17.1°C 55.8°F13.2°C 78% 9.8 mph ESE15.8 kmh ESE 13.0 mph20.9 kmh 29.75 in1007.5 mb 0.00 in0.0 mm 0.00 in0.0 mm 0.05 in1.3 mm
04:15 PM 63.1°F17.3°C 56.2°F13.4°C 78% 7.6 mph SE12.2 kmh SE 12.1 mph19.5 kmh 29.75 in1007.5 mb 0.00 in0.0 mm 0.00 in0.0 mm 0.05 in1.3 mm
04:30 PM 63.3°F17.4°C 56.4°F13.6°C 78% 6.0 mph ESE9.7 kmh ESE 14.5 mph23.3 kmh 29.75 in1007.5 mb 0.00 in0.0 mm 0.00 in0.0 mm 0.05 in1.3 mm
04:45 PM 63.3°F17.4°C 56.0°F13.3°C 77% 5.4 mph ESE8.7 kmh ESE 9.8 mph15.8 kmh 29.75 in1007.5 mb 0.00 in0.0 mm 0.00 in0.0 mm 0.05 in1.3 mm
05:00 PM 63.1°F17.3°C 56.2°F13.4°C 78% 7.6 mph SE12.2 kmh SE 12.1 mph19.5 kmh 29.75 in1007.5 mb 0.00 in0.0 mm 0.00 in0.0 mm 0.05 in1.3 mm
05:15 PM 63.0°F17.2°C 56.0°F13.3°C 78% 4.5 mph SE7.2 kmh SE 9.8 mph15.8 kmh 29.75 in1007.5 mb 0.00 in0.0 mm 0.00 in0.0 mm 0.05 in1.3 mm
05:30 PM 63.0°F17.2°C 56.7°F13.7°C 80% 5.4 mph ESE8.7 kmh ESE 12.1 mph19.5 kmh 29.75 in1007.5 mb 0.00 in0.0 mm 0.00 in0.0 mm 0.05 in1.3 mm
05:45 PM 63.0°F17.2°C 57.1°F13.9°C 81% 9.2 mph ESE14.8 kmh ESE 14.5 mph23.3 kmh 29.76 in1007.8 mb 0.00 in0.0 mm 0.00 in0.0 mm 0.05 in1.3 mm
06:00 PM 62.6°F17.0°C 56.7°F13.7°C 81% 7.6 mph ESE12.2 kmh ESE 11.4 mph18.3 kmh 29.76 in1007.8 mb 0.00 in0.0 mm 0.00 in0.0 mm 0.05 in1.3 mm
06:15 PM 62.6°F17.0°C 56.7°F13.7°C 81% 8.3 mph SE13.4 kmh SE 13.6 mph21.9 kmh 29.76 in1007.8 mb 0.00 in0.0 mm 0.00 in0.0 mm 0.05 in1.3 mm
06:30 PM 62.6°F17.0°C 57.0°F13.9°C 82% 6.0 mph SE9.7 kmh SE 10.7 mph17.2 kmh 29.75 in1007.5 mb 0.00 in0.0 mm 0.00 in0.0 mm 0.05 in1.3 mm
06:45 PM 62.4°F16.9°C 56.9°F13.8°C 82% 3.8 mph SE6.1 kmh SE 11.4 mph18.3 kmh 29.76 in1007.8 mb 0.00 in0.0 mm 0.00 in0.0 mm 0.05 in1.3 mm
07:00 PM 62.1°F16.7°C 56.9°F13.8°C 83% 4.5 mph ESE7.2 kmh ESE 10.7 mph17.2 kmh 29.76 in1007.8 mb 0.00 in0.0 mm 0.00 in0.0 mm 0.05 in1.3 mm
07:15 PM 62.1°F16.7°C 56.9°F13.8°C 83% 6.9 mph ESE11.1 kmh ESE 11.4 mph18.3 kmh 29.77 in1008.1 mb 0.00 in0.0 mm 0.00 in0.0 mm 0.05 in1.3 mm
07:30 PM 62.1°F16.7°C 56.9°F13.8°C 83% 7.6 mph ESE12.2 kmh ESE 10.7 mph17.2 kmh 29.77 in1008.1 mb 0.00 in0.0 mm 0.00 in0.0 mm 0.05 in1.3 mm
07:45 PM 62.1°F16.7°C 56.9°F13.8°C 83% 5.4 mph SE8.7 kmh SE 9.8 mph15.8 kmh 29.77 in1008.1 mb 0.00 in0.0 mm 0.00 in0.0 mm 0.05 in1.3 mm
08:00 PM 61.9°F16.6°C 57.7°F14.3°C 86% 4.5 mph ESE7.2 kmh ESE 10.7 mph17.2 kmh 29.78 in1008.5 mb 0.00 in0.0 mm 0.00 in0.0 mm 0.05 in1.3 mm
08:15 PM 62.1°F16.7°C 56.9°F13.8°C 83% 4.5 mph ESE7.2 kmh ESE 12.1 mph19.5 kmh 29.78 in1008.5 mb 0.00 in0.0 mm 0.00 in0.0 mm 0.05 in1.3 mm
08:30 PM 62.1°F16.7°C 56.9°F13.8°C 83% 3.8 mph SE6.1 kmh SE 9.2 mph14.8 kmh 29.78 in1008.5 mb 0.00 in0.0 mm 0.00 in0.0 mm 0.05 in1.3 mm
08:45 PM 62.1°F16.7°C 56.9°F13.8°C 83% 4.5 mph ESE7.2 kmh ESE 7.6 mph12.2 kmh 29.79 in1008.8 mb 0.00 in0.0 mm 0.00 in0.0 mm 0.05 in1.3 mm
09:00 PM 62.1°F16.7°C 56.9°F13.8°C 83% 6.9 mph ESE11.1 kmh ESE 8.3 mph13.4 kmh 29.78 in1008.5 mb 0.00 in0.0 mm 0.00 in0.0 mm 0.05 in1.3 mm
09:15 PM 62.2°F16.8°C 57.0°F13.9°C 83% 6.9 mph ESE11.1 kmh ESE 9.8 mph15.8 kmh 29.78 in1008.5 mb 0.00 in0.0 mm 0.00 in0.0 mm 0.05 in1.3 mm
09:30 PM 62.2°F16.8°C 57.0°F13.9°C 83% 5.4 mph ESE8.7 kmh ESE 11.4 mph18.3 kmh 29.79 in1008.8 mb 0.00 in0.0 mm 0.00 in0.0 mm 0.05 in1.3 mm
09:45 PM 62.2°F16.8°C 57.0°F13.9°C 83% 8.3 mph SE13.4 kmh SE 13.0 mph20.9 kmh 29.79 in1008.8 mb 0.00 in0.0 mm 0.00 in0.0 mm 0.05 in1.3 mm
10:00 PM 62.4°F16.9°C 57.2°F14.0°C 83% 5.4 mph ESE8.7 kmh ESE 9.8 mph15.8 kmh 29.79 in1008.8 mb 0.00 in0.0 mm 0.00 in0.0 mm 0.05 in1.3 mm
10:15 PM 62.4°F16.9°C 57.5°F14.2°C 84% 5.4 mph ESE8.7 kmh ESE 8.3 mph13.4 kmh 29.80 in1009.1 mb 0.00 in0.0 mm 0.00 in0.0 mm 0.05 in1.3 mm
10:30 PM 62.6°F17.0°C 57.7°F14.3°C 84% 5.4 mph ESE8.7 kmh ESE 9.2 mph14.8 kmh 29.80 in1009.1 mb 0.00 in0.0 mm 0.00 in0.0 mm 0.05 in1.3 mm
10:45 PM 62.6°F17.0°C 57.7°F14.3°C 84% 6.9 mph SE11.1 kmh SE 10.7 mph17.2 kmh 29.80 in1009.1 mb 0.00 in0.0 mm 0.00 in0.0 mm 0.05 in1.3 mm
11:00 PM 62.6°F17.0°C 57.7°F14.3°C 84% 4.5 mph E7.2 kmh E 9.2 mph14.8 kmh 29.80 in1009.1 mb 0.00 in0.0 mm 0.00 in0.0 mm 0.01 in0.3 mm
11:15 PM 62.4°F16.9°C 57.5°F14.2°C 84% 6.0 mph E9.7 kmh E 9.2 mph14.8 kmh 29.79 in1008.8 mb 0.00 in0.0 mm 0.00 in0.0 mm 0.01 in0.3 mm
11:30 PM 62.2°F16.8°C 57.4°F14.1°C 84% 5.4 mph ESE8.7 kmh ESE 10.7 mph17.2 kmh 29.79 in1008.8 mb 0.00 in0.0 mm 0.00 in0.0 mm 0.01 in0.3 mm
11:45 PM 62.2°F16.8°C 57.0°F13.9°C 83% 4.5 mph SE7.2 kmh SE 6.9 mph11.1 kmh 29.79 in1008.8 mb 0.00 in0.0 mm 0.00 in0.0 mm 0.01 in0.3 mm